sensor_id;sensor_type;location;lat;lon;timestamp;pressure;altitude;pressure_sealevel;temperature;humidity
8059;BME280;4072;42.668;23.396;2023-04-15T00:00:55;94292.47;;;6.93;100.00
8059;BME280;4072;42.668;23.396;2023-04-15T00:03:25;94320.81;;;7.16;100.00
8059;BME280;4072;42.668;23.396;2023-04-15T00:05:56;94317.38;;;7.15;100.00
8059;BME280;4072;42.668;23.396;2023-04-15T00:08:25;94317.03;;;7.35;100.00
8059;BME280;4072;42.668;23.396;2023-04-15T00:10:53;94321.16;;;7.27;100.00
8059;BME280;4072;42.668;23.396;2023-04-15T00:13:23;94203.09;;;6.41;100.00
8059;BME280;4072;42.668;23.396;2023-04-15T00:15:51;94337.16;;;7.30;100.00
8059;BME280;4072;42.668;23.396;2023-04-15T00:18:19;94320.97;;;7.21;100.00
8059;BME280;4072;42.668;23.396;2023-04-15T00:20:48;94353.38;;;7.48;100.00
8059;BME280;4072;42.668;23.396;2023-04-15T00:23:16;94352.66;;;7.57;100.00
8059;BME280;4072;42.668;23.396;2023-04-15T00:25:44;94343.44;;;7.67;100.00
8059;BME280;4072;42.668;23.396;2023-04-15T00:28:12;94341.97;;;7.84;100.00
8059;BME280;4072;42.668;23.396;2023-04-15T00:30:42;94337.78;;;7.74;100.00
8059;BME280;4072;42.668;23.396;2023-04-15T00:33:11;94346.44;;;7.87;100.00
8059;BME280;4072;42.668;23.396;2023-04-15T00:35:40;94346.44;;;7.87;100.00
8059;BME280;4072;42.668;23.396;2023-04-15T00:38:09;94339.84;;;7.79;100.00
8059;BME280;4072;42.668;23.396;2023-04-15T00:40:37;94270.78;;;7.18;100.00
8059;BME280;4072;42.668;23.396;2023-04-15T00:43:05;94342.13;;;7.41;100.00
8059;BME280;4072;42.668;23.396;2023-04-15T00:45:33;94343.03;;;7.07;100.00
8059;BME280;4072;42.668;23.396;2023-04-15T00:48:04;94348.28;;;7.11;100.00
8059;BME280;4072;42.668;23.396;2023-04-15T00:50:32;94362.34;;;7.15;100.00
8059;BME280;4072;42.668;23.396;2023-04-15T00:53:01;94354.91;;;7.19;100.00
8059;BME280;4072;42.668;23.396;2023-04-15T00:55:29;94365.38;;;7.17;100.00
8059;BME280;4072;42.668;23.396;2023-04-15T00:57:57;94367.63;;;7.18;100.00
8059;BME280;4072;42.668;23.396;2023-04-15T01:00:25;94356.94;;;7.36;100.00
8059;BME280;4072;42.668;23.396;2023-04-15T01:02:53;94360.59;;;7.21;100.00
8059;BME280;4072;42.668;23.396;2023-04-15T01:05:23;94359.38;;;7.52;100.00
8059;BME280;4072;42.668;23.396;2023-04-15T01:07:54;94344.53;;;7.39;100.00
8059;BME280;4072;42.668;23.396;2023-04-15T01:10:22;94355.75;;;7.46;100.00
8059;BME280;4072;42.668;23.396;2023-04-15T01:12:50;94349.81;;;7.51;100.00
8059;BME280;4072;42.668;23.396;2023-04-15T01:15:19;94350.63;;;7.79;100.00
8059;BME280;4072;42.668;23.396;2023-04-15T01:17:47;94349.63;;;7.85;100.00
8059;BME280;4072;42.668;23.396;2023-04-15T01:20:15;94335.66;;;7.69;100.00
8059;BME280;4072;42.668;23.396;2023-04-15T01:22:45;94343.47;;;7.85;100.00
8059;BME280;4072;42.668;23.396;2023-04-15T01:25:17;94337.50;;;7.99;100.00
8059;BME280;4072;42.668;23.396;2023-04-15T01:27:47;94328.19;;;7.82;100.00
8059;BME280;4072;42.668;23.396;2023-04-15T01:30:15;94335.69;;;7.87;100.00
8059;BME280;4072;42.668;23.396;2023-04-15T01:32:43;94331.50;;;7.77;100.00
8059;BME280;4072;42.668;23.396;2023-04-15T01:35:12;94347.97;;;7.88;100.00
8059;BME280;4072;42.668;23.396;2023-04-15T01:37:41;94336.88;;;7.77;100.00
8059;BME280;4072;42.668;23.396;2023-04-15T01:40:10;94345.25;;;7.79;100.00
8059;BME280;4072;42.668;23.396;2023-04-15T01:42:39;94347.34;;;7.75;100.00
8059;BME280;4072;42.668;23.396;2023-04-15T01:45:10;94338.94;;;7.64;100.00
8059;BME280;4072;42.668;23.396;2023-04-15T01:47:39;94348.06;;;7.66;100.00
8059;BME280;4072;42.668;23.396;2023-04-15T01:50:08;94349.38;;;7.62;100.00
8059;BME280;4072;42.668;23.396;2023-04-15T01:52:36;94351.47;;;7.58;100.00
8059;BME280;4072;42.668;23.396;2023-04-15T01:55:05;94351.75;;;7.51;100.00
8059;BME280;4072;42.668;23.396;2023-04-15T01:57:34;94359.19;;;7.38;100.00
8059;BME280;4072;42.668;23.396;2023-04-15T02:00:03;94360.00;;;7.26;100.00
8059;BME280;4072;42.668;23.396;2023-04-15T02:02:34;94350.09;;;7.14;100.00
8059;BME280;4072;42.668;23.396;2023-04-15T02:05:03;94366.50;;;7.07;100.00
8059;BME280;4072;42.668;23.396;2023-04-15T02:07:32;94375.69;;;6.97;100.00
8059;BME280;4072;42.668;23.396;2023-04-15T02:10:00;94367.97;;;6.99;100.00
8059;BME280;4072;42.668;23.396;2023-04-15T02:12:28;94361.56;;;7.05;100.00
8059;BME280;4072;42.668;23.396;2023-04-15T02:14:57;94364.88;;;7.09;100.00
8059;BME280;4072;42.668;23.396;2023-04-15T02:17:25;94359.00;;;7.02;100.00
8059;BME280;4072;42.668;23.396;2023-04-15T02:19:56;94350.63;;;7.00;100.00
8059;BME280;4072;42.668;23.396;2023-04-15T02:22:24;94351.50;;;6.97;100.00
8059;BME280;4072;42.668;23.396;2023-04-15T02:24:53;94345.81;;;6.95;100.00
8059;BME280;4072;42.668;23.396;2023-04-15T02:27:21;94341.88;;;6.87;100.00
8059;BME280;4072;42.668;23.396;2023-04-15T02:29:49;94336.97;;;6.64;100.00
8059;BME280;4072;42.668;23.396;2023-04-15T02:32:18;94265.44;;;5.92;100.00
8059;BME280;4072;42.668;23.396;2023-04-15T02:34:49;94345.53;;;6.50;100.00
8059;BME280;4072;42.668;23.396;2023-04-15T02:37:18;94334.97;;;6.55;100.00
8059;BME280;4072;42.668;23.396;2023-04-15T02:39:47;94334.28;;;6.64;100.00
8059;BME280;4072;42.668;23.396;2023-04-15T02:42:15;94337.53;;;6.59;100.00
8059;BME280;4072;42.668;23.396;2023-04-15T02:44:43;94339.00;;;6.60;100.00
8059;BME280;4072;42.668;23.396;2023-04-15T02:47:12;94352.41;;;6.51;100.00
8059;BME280;4072;42.668;23.396;2023-04-15T02:49:42;94371.00;;;6.45;100.00
8059;BME280;4072;42.668;23.396;2023-04-15T02:52:10;94374.13;;;6.09;100.00
8059;BME280;4072;42.668;23.396;2023-04-15T02:54:41;94358.41;;;5.86;100.00
8059;BME280;4072;42.668;23.396;2023-04-15T02:57:09;94345.56;;;5.31;100.00
8059;BME280;4072;42.668;23.396;2023-04-15T02:59:38;94359.53;;;5.26;100.00
8059;BME280;4072;42.668;23.396;2023-04-15T03:02:06;94384.84;;;5.25;100.00
8059;BME280;4072;42.668;23.396;2023-04-15T03:04:35;94371.94;;;5.20;100.00
8059;BME280;4072;42.668;23.396;2023-04-15T03:07:03;94364.88;;;5.01;100.00
8059;BME280;4072;42.668;23.396;2023-04-15T03:09:31;94370.09;;;4.92;100.00
8059;BME280;4072;42.668;23.396;2023-04-15T03:12:01;94368.38;;;4.86;100.00
8059;BME280;4072;42.668;23.396;2023-04-15T03:14:29;94373.75;;;4.98;100.00
8059;BME280;4072;42.668;23.396;2023-04-15T03:16:58;94367.84;;;5.03;100.00
8059;BME280;4072;42.668;23.396;2023-04-15T03:19:26;94379.91;;;5.11;100.00
8059;BME280;4072;42.668;23.396;2023-04-15T03:21:56;94343.19;;;4.83;100.00
8059;BME280;4072;42.668;23.396;2023-04-15T03:24:24;94374.09;;;5.13;100.00
8059;BME280;4072;42.668;23.396;2023-04-15T03:26:52;94385.13;;;5.15;100.00
8059;BME280;4072;42.668;23.396;2023-04-15T03:29:22;94392.88;;;5.13;100.00
8059;BME280;4072;42.668;23.396;2023-04-15T03:31:51;94394.38;;;5.26;100.00
8059;BME280;4072;42.668;23.396;2023-04-15T03:34:19;94402.63;;;5.19;100.00
8059;BME280;4072;42.668;23.396;2023-04-15T03:36:48;94401.25;;;5.27;100.00
8059;BME280;4072;42.668;23.396;2023-04-15T03:39:17;94393.63;;;5.38;100.00
8059;BME280;4072;42.668;23.396;2023-04-15T03:41:45;94397.50;;;5.37;100.00
8059;BME280;4072;42.668;23.396;2023-04-15T03:44:13;94416.59;;;5.39;100.00
8059;BME280;4072;42.668;23.396;2023-04-15T03:46:43;94414.78;;;5.49;100.00
8059;BME280;4072;42.668;23.396;2023-04-15T03:49:12;94411.66;;;5.50;100.00
8059;BME280;4072;42.668;23.396;2023-04-15T03:51:40;94421.75;;;5.59;100.00
8059;BME280;4072;42.668;23.396;2023-04-15T03:54:09;94412.72;;;5.65;100.00
8059;BME280;4072;42.668;23.396;2023-04-15T03:56:37;94430.09;;;5.98;100.00
8059;BME280;4072;42.668;23.396;2023-04-15T03:59:05;94442.16;;;5.81;100.00
8059;BME280;4072;42.668;23.396;2023-04-15T04:01:33;94424.88;;;5.82;100.00
8059;BME280;4072;42.668;23.396;2023-04-15T04:04:03;94423.13;;;5.88;100.00
8059;BME280;4072;42.668;23.396;2023-04-15T04:06:31;94429.69;;;5.87;100.00
8059;BME280;4072;42.668;23.396;2023-04-15T04:09:00;94433.66;;;5.95;100.00
8059;BME280;4072;42.668;23.396;2023-04-15T04:11:28;94447.63;;;6.03;100.00
8059;BME280;4072;42.668;23.396;2023-04-15T04:13:57;94440.31;;;6.03;100.00
8059;BME280;4072;42.668;23.396;2023-04-15T04:16:25;94443.75;;;6.04;100.00
8059;BME280;4072;42.668;23.396;2023-04-15T04:18:55;94432.13;;;6.07;100.00
8059;BME280;4072;42.668;23.396;2023-04-15T04:21:27;94428.69;;;6.19;100.00
8059;BME280;4072;42.668;23.396;2023-04-15T04:23:55;94430.38;;;6.26;100.00
8059;BME280;4072;42.668;23.396;2023-04-15T04:26:24;94435.81;;;6.35;100.00
8059;BME280;4072;42.668;23.396;2023-04-15T04:28:52;94403.63;;;6.22;100.00
8059;BME280;4072;42.668;23.396;2023-04-15T04:31:20;94443.50;;;6.58;100.00
8059;BME280;4072;42.668;23.396;2023-04-15T04:33:48;94445.66;;;6.84;100.00
8059;BME280;4072;42.668;23.396;2023-04-15T04:36:17;94440.81;;;6.92;100.00
8059;BME280;4072;42.668;23.396;2023-04-15T04:38:47;94445.97;;;7.08;100.00
8059;BME280;4072;42.668;23.396;2023-04-15T04:41:15;94447.53;;;7.18;100.00
8059;BME280;4072;42.668;23.396;2023-04-15T04:43:43;94434.22;;;7.14;100.00
8059;BME280;4072;42.668;23.396;2023-04-15T04:46:11;94454.22;;;7.35;100.00
8059;BME280;4072;42.668;23.396;2023-04-15T04:48:39;94439.94;;;7.47;100.00
8059;BME280;4072;42.668;23.396;2023-04-15T04:51:08;94444.28;;;7.53;100.00
8059;BME280;4072;42.668;23.396;2023-04-15T04:53:36;94453.19;;;7.72;100.00
8059;BME280;4072;42.668;23.396;2023-04-15T04:56:08;94450.59;;;7.90;100.00
8059;BME280;4072;42.668;23.396;2023-04-15T04:58:37;94451.41;;;8.08;100.00
8059;BME280;4072;42.668;23.396;2023-04-15T05:01:05;94455.72;;;8.06;100.00
8059;BME280;4072;42.668;23.396;2023-04-15T05:03:33;94473.94;;;7.93;100.00
8059;BME280;4072;42.668;23.396;2023-04-15T05:06:03;94461.72;;;7.70;100.00
8059;BME280;4072;42.668;23.396;2023-04-15T05:08:34;94475.00;;;7.65;100.00
8059;BME280;4072;42.668;23.396;2023-04-15T05:11:05;94475.63;;;7.69;100.00
8059;BME280;4072;42.668;23.396;2023-04-15T05:13:36;94476.19;;;7.64;100.00
8059;BME280;4072;42.668;23.396;2023-04-15T05:16:05;94494.78;;;7.71;100.00
8059;BME280;4072;42.668;23.396;2023-04-15T05:18:33;94495.13;;;7.82;100.00
8059;BME280;4072;42.668;23.396;2023-04-15T05:21:01;94486.53;;;7.96;100.00
8059;BME280;4072;42.668;23.396;2023-04-15T05:23:29;94498.03;;;8.27;100.00
8059;BME280;4072;42.668;23.396;2023-04-15T05:25:57;94499.88;;;8.48;100.00
8059;BME280;4072;42.668;23.396;2023-04-15T05:28:25;94504.09;;;8.67;100.00
8059;BME280;4072;42.668;23.396;2023-04-15T05:30:55;94502.63;;;8.84;100.00
8059;BME280;4072;42.668;23.396;2023-04-15T05:33:23;94500.69;;;8.93;100.00
8059;BME280;4072;42.668;23.396;2023-04-15T05:35:51;94493.94;;;9.07;100.00
8059;BME280;4072;42.668;23.396;2023-04-15T05:38:19;94497.53;;;9.13;100.00
8059;BME280;4072;42.668;23.396;2023-04-15T05:40:47;94485.53;;;9.14;100.00
8059;BME280;4072;42.668;23.396;2023-04-15T05:43:15;94487.31;;;9.35;100.00
8059;BME280;4072;42.668;23.396;2023-04-15T05:45:44;94487.28;;;9.53;100.00
8059;BME280;4072;42.668;23.396;2023-04-15T05:48:13;94494.50;;;9.65;100.00
8059;BME280;4072;42.668;23.396;2023-04-15T05:50:42;94443.03;;;9.60;100.00
8059;BME280;4072;42.668;23.396;2023-04-15T05:53:10;94485.38;;;9.95;100.00
8059;BME280;4072;42.668;23.396;2023-04-15T05:55:39;94494.13;;;9.90;100.00
8059;BME280;4072;42.668;23.396;2023-04-15T05:58:07;94497.03;;;10.19;100.00
8059;BME280;4072;42.668;23.396;2023-04-15T06:00:36;94496.91;;;10.46;100.00
8059;BME280;4072;42.668;23.396;2023-04-15T06:03:04;94500.19;;;10.74;100.00
8059;BME280;4072;42.668;23.396;2023-04-15T06:05:34;94509.38;;;11.14;97.51
8059;BME280;4072;42.668;23.396;2023-04-15T06:08:03;94513.22;;;11.22;93.21
8059;BME280;4072;42.668;23.396;2023-04-15T06:10:31;94505.06;;;11.46;87.97
8059;BME280;4072;42.668;23.396;2023-04-15T06:13:02;94509.00;;;11.59;83.27
8059;BME280;4072;42.668;23.396;2023-04-15T06:15:30;94503.00;;;11.41;85.68
8059;BME280;4072;42.668;23.396;2023-04-15T06:17:59;94497.81;;;11.14;96.56
8059;BME280;4072;42.668;23.396;2023-04-15T06:20:28;94511.78;;;11.50;98.85
8059;BME280;4072;42.668;23.396;2023-04-15T06:22:58;94502.47;;;11.51;96.42
8059;BME280;4072;42.668;23.396;2023-04-15T06:25:26;94513.88;;;11.70;96.61
8059;BME280;4072;42.668;23.396;2023-04-15T06:27:55;94506.03;;;11.86;88.69
8059;BME280;4072;42.668;23.396;2023-04-15T06:30:24;94524.53;;;11.88;88.31
8059;BME280;4072;42.668;23.396;2023-04-15T06:32:53;94519.78;;;11.98;85.84
8059;BME280;4072;42.668;23.396;2023-04-15T06:35:22;94523.44;;;11.95;85.64
8059;BME280;4072;42.668;23.396;2023-04-15T06:37:50;94461.44;;;11.44;85.32
8059;BME280;4072;42.668;23.396;2023-04-15T06:40:20;94529.31;;;11.93;89.36
8059;BME280;4072;42.668;23.396;2023-04-15T06:42:48;94528.94;;;12.00;91.43
8059;BME280;4072;42.668;23.396;2023-04-15T06:45:16;94538.19;;;12.23;86.68
8059;BME280;4072;42.668;23.396;2023-04-15T06:47:44;94539.28;;;12.31;83.38
8059;BME280;4072;42.668;23.396;2023-04-15T06:50:12;94543.41;;;12.41;82.43
8059;BME280;4072;42.668;23.396;2023-04-15T06:52:40;94539.38;;;12.51;81.86
8059;BME280;4072;42.668;23.396;2023-04-15T06:55:09;94540.44;;;12.93;80.76
8059;BME280;4072;42.668;23.396;2023-04-15T06:57:39;94539.47;;;13.11;81.72
8059;BME280;4072;42.668;23.396;2023-04-15T07:00:10;94541.88;;;13.69;74.35
8059;BME280;4072;42.668;23.396;2023-04-15T07:02:38;94551.63;;;13.81;68.74
8059;BME280;4072;42.668;23.396;2023-04-15T07:05:07;94551.81;;;13.52;68.84
8059;BME280;4072;42.668;23.396;2023-04-15T07:07:35;94544.22;;;13.36;70.97
8059;BME280;4072;42.668;23.396;2023-04-15T07:10:05;94550.47;;;13.22;72.12
8059;BME280;4072;42.668;23.396;2023-04-15T07:12:33;94548.88;;;12.95;73.63
8059;BME280;4072;42.668;23.396;2023-04-15T07:15:04;94550.06;;;13.09;71.48
8059;BME280;4072;42.668;23.396;2023-04-15T07:17:32;94547.88;;;13.13;72.96
8059;BME280;4072;42.668;23.396;2023-04-15T07:20:01;94545.59;;;13.26;72.04
8059;BME280;4072;42.668;23.396;2023-04-15T07:22:30;94539.09;;;13.18;68.99
8059;BME280;4072;42.668;23.396;2023-04-15T07:24:58;94540.56;;;13.19;69.93
8059;BME280;4072;42.668;23.396;2023-04-15T07:27:27;94532.53;;;13.10;72.46
8059;BME280;4072;42.668;23.396;2023-04-15T07:29:55;94539.34;;;13.40;71.29
8059;BME280;4072;42.668;23.396;2023-04-15T07:32:24;94559.13;;;13.66;70.19
8059;BME280;4072;42.668;23.396;2023-04-15T07:34:55;94551.41;;;13.59;71.38
8059;BME280;4072;42.668;23.396;2023-04-15T07:37:24;94559.72;;;13.50;69.98
8059;BME280;4072;42.668;23.396;2023-04-15T07:39:52;94549.03;;;13.26;69.76
8059;BME280;4072;42.668;23.396;2023-04-15T07:42:21;94554.97;;;13.25;70.46
8059;BME280;4072;42.668;23.396;2023-04-15T07:44:50;94548.31;;;13.26;70.34
8059;BME280;4072;42.668;23.396;2023-04-15T07:47:19;94536.16;;;13.41;69.60
8059;BME280;4072;42.668;23.396;2023-04-15T07:49:49;94550.09;;;13.54;68.88
8059;BME280;4072;42.668;23.396;2023-04-15T07:52:18;94561.72;;;13.55;70.57
8059;BME280;4072;42.668;23.396;2023-04-15T07:54:46;94559.53;;;13.79;69.08
8059;BME280;4072;42.668;23.396;2023-04-15T07:57:14;94564.22;;;14.04;67.97
8059;BME280;4072;42.668;23.396;2023-04-15T07:59:44;94561.72;;;14.26;67.52
8059;BME280;4072;42.668;23.396;2023-04-15T08:02:13;94572.78;;;14.79;62.03
8059;BME280;4072;42.668;23.396;2023-04-15T08:04:41;94568.56;;;14.47;63.04
8059;BME280;4072;42.668;23.396;2023-04-15T08:07:11;94564.09;;;14.44;65.56
8059;BME280;4072;42.668;23.396;2023-04-15T08:09:39;94560.09;;;14.39;62.93
8059;BME280;4072;42.668;23.396;2023-04-15T08:12:07;94566.16;;;14.23;65.93
8059;BME280;4072;42.668;23.396;2023-04-15T08:14:39;94565.44;;;14.28;63.58
8059;BME280;4072;42.668;23.396;2023-04-15T08:17:06;94568.94;;;14.29;64.87
8059;BME280;4072;42.668;23.396;2023-04-15T08:19:35;94572.41;;;14.29;63.57
8059;BME280;4072;42.668;23.396;2023-04-15T08:22:03;94546.63;;;14.25;62.38
8059;BME280;4072;42.668;23.396;2023-04-15T08:24:38;94569.69;;;14.29;60.06
8059;BME280;4072;42.668;23.396;2023-04-15T08:27:06;94565.06;;;14.41;61.17
8059;BME280;4072;42.668;23.396;2023-04-15T08:29:34;94569.94;;;14.62;62.38
8059;BME280;4072;42.668;23.396;2023-04-15T08:32:03;94559.84;;;14.37;62.77
8059;BME280;4072;42.668;23.396;2023-04-15T08:34:32;94561.47;;;14.24;64.59
8059;BME280;4072;42.668;23.396;2023-04-15T08:37:00;94559.41;;;14.19;64.36
8059;BME280;4072;42.668;23.396;2023-04-15T08:39:28;94561.97;;;14.22;63.23
8059;BME280;4072;42.668;23.396;2023-04-15T08:42:00;94560.38;;;14.16;61.93
8059;BME280;4072;42.668;23.396;2023-04-15T08:44:32;94549.47;;;14.16;62.84
8059;BME280;4072;42.668;23.396;2023-04-15T08:47:00;94556.88;;;14.41;62.19
8059;BME280;4072;42.668;23.396;2023-04-15T08:49:29;94558.56;;;14.33;58.44
8059;BME280;4072;42.668;23.396;2023-04-15T08:51:58;94553.13;;;14.33;56.20
8059;BME280;4072;42.668;23.396;2023-04-15T08:54:27;94549.16;;;14.34;54.92
8059;BME280;4072;42.668;23.396;2023-04-15T08:56:58;94551.28;;;14.50;52.73
8059;BME280;4072;42.668;23.396;2023-04-15T08:59:26;94545.41;;;14.57;52.65
8059;BME280;4072;42.668;23.396;2023-04-15T09:01:54;94553.47;;;14.77;51.33
8059;BME280;4072;42.668;23.396;2023-04-15T09:04:27;94536.88;;;14.81;45.26
8059;BME280;4072;42.668;23.396;2023-04-15T09:06:55;94519.59;;;14.84;46.50
8059;BME280;4072;42.668;23.396;2023-04-15T09:09:24;94522.03;;;14.82;45.59
8059;BME280;4072;42.668;23.396;2023-04-15T09:11:52;94541.97;;;15.04;45.23
8059;BME280;4072;42.668;23.396;2023-04-15T09:14:23;94527.53;;;15.40;45.76
8059;BME280;4072;42.668;23.396;2023-04-15T09:16:58;94513.03;;;15.71;44.26
8059;BME280;4072;42.668;23.396;2023-04-15T09:19:27;94509.53;;;15.59;44.44
8059;BME280;4072;42.668;23.396;2023-04-15T09:21:56;94501.66;;;15.78;43.79
8059;BME280;4072;42.668;23.396;2023-04-15T09:24:33;94496.41;;;15.74;42.21
8059;BME280;4072;42.668;23.396;2023-04-15T09:27:03;94497.41;;;15.71;42.52
8059;BME280;4072;42.668;23.396;2023-04-15T09:29:33;94498.88;;;15.61;41.74
8059;BME280;4072;42.668;23.396;2023-04-15T09:32:09;94507.81;;;15.67;40.99
8059;BME280;4072;42.668;23.396;2023-04-15T09:34:39;94501.59;;;15.72;39.82
8059;BME280;4072;42.668;23.396;2023-04-15T09:37:07;94508.31;;;15.71;39.54
8059;BME280;4072;42.668;23.396;2023-04-15T09:39:49;94503.13;;;15.84;39.70
8059;BME280;4072;42.668;23.396;2023-04-15T09:42:18;94516.31;;;16.02;39.72
8059;BME280;4072;42.668;23.396;2023-04-15T09:44:53;94519.78;;;16.30;39.40
8059;BME280;4072;42.668;23.396;2023-04-15T09:47:28;94507.88;;;16.66;38.60
8059;BME280;4072;42.668;23.396;2023-04-15T09:49:58;94509.81;;;16.93;37.46
8059;BME280;4072;42.668;23.396;2023-04-15T09:52:27;94511.69;;;17.31;36.49
8059;BME280;4072;42.668;23.396;2023-04-15T09:54:56;94486.31;;;17.36;36.85
8059;BME280;4072;42.668;23.396;2023-04-15T09:57:33;94525.63;;;17.85;36.03
8059;BME280;4072;42.668;23.396;2023-04-15T10:00:03;94516.66;;;17.90;35.55
8059;BME280;4072;42.668;23.396;2023-04-15T10:02:32;94496.22;;;17.97;35.87
8059;BME280;4072;42.668;23.396;2023-04-15T10:05:00;94505.09;;;17.68;36.26
8059;BME280;4072;42.668;23.396;2023-04-15T10:07:30;94503.94;;;17.52;37.63
8059;BME280;4072;42.668;23.396;2023-04-15T10:10:00;94504.91;;;17.55;35.75
8059;BME280;4072;42.668;23.396;2023-04-15T10:12:29;94506.19;;;17.94;35.44
8059;BME280;4072;42.668;23.396;2023-04-15T10:15:04;94509.47;;;18.22;35.28
8059;BME280;4072;42.668;23.396;2023-04-15T10:17:33;94425.06;;;17.62;35.13
8059;BME280;4072;42.668;23.396;2023-04-15T10:20:03;94498.47;;;17.93;35.75
8059;BME280;4072;42.668;23.396;2023-04-15T10:22:34;94493.28;;;17.84;36.19
8059;BME280;4072;42.668;23.396;2023-04-15T10:25:02;94493.94;;;18.01;35.49
8059;BME280;4072;42.668;23.396;2023-04-15T10:27:31;94487.22;;;17.61;37.49
8059;BME280;4072;42.668;23.396;2023-04-15T10:30:00;94477.50;;;17.66;35.79
8059;BME280;4072;42.668;23.396;2023-04-15T10:32:31;94481.50;;;18.00;37.00
8059;BME280;4072;42.668;23.396;2023-04-15T10:35:00;94471.31;;;17.95;36.78
8059;BME280;4072;42.668;23.396;2023-04-15T10:37:34;94483.69;;;17.72;37.91
8059;BME280;4072;42.668;23.396;2023-04-15T10:40:25;94467.97;;;17.20;37.83
8059;BME280;4072;42.668;23.396;2023-04-15T10:42:54;94464.53;;;17.14;38.11
8059;BME280;4072;42.668;23.396;2023-04-15T10:45:24;94468.56;;;17.02;39.27
8059;BME280;4072;42.668;23.396;2023-04-15T10:47:56;94468.06;;;16.98;38.93
8059;BME280;4072;42.668;23.396;2023-04-15T10:50:29;94464.88;;;16.94;38.62
8059;BME280;4072;42.668;23.396;2023-04-15T10:53:01;94459.13;;;16.92;39.18
8059;BME280;4072;42.668;23.396;2023-04-15T10:55:31;94466.59;;;16.97;38.13
8059;BME280;4072;42.668;23.396;2023-04-15T10:58:01;94459.13;;;16.92;38.53
8059;BME280;4072;42.668;23.396;2023-04-15T11:00:30;94466.88;;;16.83;38.31
8059;BME280;4072;42.668;23.396;2023-04-15T11:03:04;94466.81;;;16.99;38.06
8059;BME280;4072;42.668;23.396;2023-04-15T11:05:50;94459.56;;;17.18;38.22
8059;BME280;4072;42.668;23.396;2023-04-15T11:08:19;94461.94;;;17.50;37.17
8059;BME280;4072;42.668;23.396;2023-04-15T11:10:51;94461.53;;;17.70;38.13
8059;BME280;4072;42.668;23.396;2023-04-15T11:13:21;94477.66;;;17.79;36.27
8059;BME280;4072;42.668;23.396;2023-04-15T11:15:55;94466.91;;;17.92;35.99
8059;BME280;4072;42.668;23.396;2023-04-15T11:18:31;94467.41;;;17.90;35.57
8059;BME280;4072;42.668;23.396;2023-04-15T11:21:04;94452.25;;;17.84;35.87
8059;BME280;4072;42.668;23.396;2023-04-15T11:23:35;94469.63;;;17.92;35.33
8059;BME280;4072;42.668;23.396;2023-04-15T11:26:05;94451.97;;;17.93;36.04
8059;BME280;4072;42.668;23.396;2023-04-15T11:28:35;94455.13;;;18.02;35.54
8059;BME280;4072;42.668;23.396;2023-04-15T11:31:06;94469.38;;;17.90;36.49
8059;BME280;4072;42.668;23.396;2023-04-15T11:33:43;94432.13;;;17.81;36.21
8059;BME280;4072;42.668;23.396;2023-04-15T11:36:12;94459.78;;;17.78;35.00
8059;BME280;4072;42.668;23.396;2023-04-15T11:38:46;94453.41;;;17.59;35.95
8059;BME280;4072;42.668;23.396;2023-04-15T11:41:19;94456.88;;;17.65;35.98
8059;BME280;4072;42.668;23.396;2023-04-15T11:43:48;94407.25;;;17.50;36.06
8059;BME280;4072;42.668;23.396;2023-04-15T11:46:16;94456.88;;;18.00;36.29
8059;BME280;4072;42.668;23.396;2023-04-15T11:48:46;94444.28;;;17.86;36.68
8059;BME280;4072;42.668;23.396;2023-04-15T11:51:14;94445.31;;;17.83;35.70
8059;BME280;4072;42.668;23.396;2023-04-15T11:53:44;94444.75;;;17.90;35.13
8059;BME280;4072;42.668;23.396;2023-04-15T11:56:17;94420.63;;;17.53;35.76
8059;BME280;4072;42.668;23.396;2023-04-15T11:58:46;94436.13;;;17.80;36.17
8059;BME280;4072;42.668;23.396;2023-04-15T12:01:17;94439.28;;;17.90;35.61
8059;BME280;4072;42.668;23.396;2023-04-15T12:03:49;94380.91;;;17.47;34.64
8059;BME280;4072;42.668;23.396;2023-04-15T12:06:18;94435.84;;;17.84;34.32
8059;BME280;4072;42.668;23.396;2023-04-15T12:09:08;94438.34;;;17.82;34.65
8059;BME280;4072;42.668;23.396;2023-04-15T12:11:40;94443.47;;;18.26;33.87
8059;BME280;4072;42.668;23.396;2023-04-15T12:14:11;94436.13;;;18.45;33.87
8059;BME280;4072;42.668;23.396;2023-04-15T12:16:41;94438.19;;;18.63;33.62
8059;BME280;4072;42.668;23.396;2023-04-15T12:19:21;94413.88;;;18.54;33.40
8059;BME280;4072;42.668;23.396;2023-04-15T12:21:50;94439.88;;;18.90;32.39
8059;BME280;4072;42.668;23.396;2023-04-15T12:24:20;94436.81;;;18.99;32.26
8059;BME280;4072;42.668;23.396;2023-04-15T12:26:50;94427.47;;;19.07;31.71
8059;BME280;4072;42.668;23.396;2023-04-15T12:29:23;94429.13;;;19.16;31.63
8059;BME280;4072;42.668;23.396;2023-04-15T12:31:52;94437.31;;;19.40;30.27
8059;BME280;4072;42.668;23.396;2023-04-15T12:34:27;94363.59;;;18.75;29.50
8059;BME280;4072;42.668;23.396;2023-04-15T12:36:58;94405.56;;;19.07;29.10
8059;BME280;4072;42.668;23.396;2023-04-15T12:39:28;94436.13;;;19.54;29.01
8059;BME280;4072;42.668;23.396;2023-04-15T12:41:57;94440.56;;;19.57;29.13
8059;BME280;4072;42.668;23.396;2023-04-15T12:44:27;94452.59;;;19.72;28.24
8059;BME280;4072;42.668;23.396;2023-04-15T12:46:56;94444.09;;;19.89;27.90
8059;BME280;4072;42.668;23.396;2023-04-15T12:49:28;94423.03;;;19.97;27.72
8059;BME280;4072;42.668;23.396;2023-04-15T12:51:57;94439.19;;;20.19;27.80
8059;BME280;4072;42.668;23.396;2023-04-15T12:54:29;94438.31;;;20.11;29.26
8059;BME280;4072;42.668;23.396;2023-04-15T12:56:58;94414.19;;;20.04;27.81
8059;BME280;4072;42.668;23.396;2023-04-15T12:59:27;94446.72;;;20.32;26.92
8059;BME280;4072;42.668;23.396;2023-04-15T13:01:55;94447.78;;;20.10;27.83
8059;BME280;4072;42.668;23.396;2023-04-15T13:04:24;94452.50;;;20.28;27.94
8059;BME280;4072;42.668;23.396;2023-04-15T13:06:57;94417.47;;;20.34;28.24
8059;BME280;4072;42.668;23.396;2023-04-15T13:09:25;94430.38;;;19.89;31.13
8059;BME280;4072;42.668;23.396;2023-04-15T13:11:54;94439.34;;;19.15;32.06
8059;BME280;4072;42.668;23.396;2023-04-15T13:14:23;94455.75;;;18.97;31.50
8059;BME280;4072;42.668;23.396;2023-04-15T13:16:51;94442.47;;;19.25;29.53
8059;BME280;4072;42.668;23.396;2023-04-15T13:19:19;94440.88;;;19.53;28.52
8059;BME280;4072;42.668;23.396;2023-04-15T13:21:48;94438.66;;;19.70;27.93